Time;durP1;ratioP1;P1;durP2;ratioP2;P2;SDS_P1;SDS_P2;PMS_P1;PMS_P2;Temp;Humidity;BMP_temperature;BMP_pressure;BME280_temperature;BME280_humidity;BME280_pressure;Samples;Min_cycle;Max_cycle;Signal;HPM_P1;HPM_P2
2023/08/05 00:01:25;;;;;;;6.10;5.32;;;23.40;99.90;;;;;;4144911;28;20427;-62
2023/08/05 00:03:26;;;;;;;11.25;5.82;;;23.40;99.90;;;;;;4145904;28;20091;-62
2023/08/05 00:05:27;;;;;;;6.03;5.43;;;23.40;99.90;;;;;;4144718;28;20050;-62
2023/08/05 00:07:28;;;;;;;7.65;5.93;;;23.40;99.90;;;;;;4145983;28;20026;-61
2023/08/05 00:09:30;;;;;;;7.72;5.30;;;23.40;99.90;;;;;;4144837;28;20104;-61
2023/08/05 00:11:31;;;;;;;7.40;4.85;;;23.50;99.90;;;;;;4144544;28;20049;-61
2023/08/05 00:13:34;;;;;;;6.07;5.47;;;23.50;99.90;;;;;;4144586;28;20100;-62
2023/08/05 00:15:35;;;;;;;7.95;5.60;;;23.50;99.90;;;;;;4144208;28;20096;-61
2023/08/05 00:17:36;;;;;;;8.60;5.65;;;23.50;99.90;;;;;;4144371;28;20035;-61
2023/08/05 00:19:37;;;;;;;6.70;6.00;;;23.40;99.90;;;;;;4145347;28;20602;-61
2023/08/05 00:21:39;;;;;;;7.20;6.50;;;23.40;99.90;;;;;;4145423;28;20119;-61
2023/08/05 00:23:40;;;;;;;9.60;6.72;;;23.50;99.90;;;;;;4145242;28;20034;-62
2023/08/05 00:25:41;;;;;;;8.73;6.10;;;23.50;99.90;;;;;;4144993;28;20042;-61
2023/08/05 00:27:42;;;;;;;10.75;5.57;;;23.60;99.90;;;;;;4144647;28;20095;-62
2023/08/05 00:29:46;;;;;;;9.43;6.65;;;23.70;99.90;;;;;;4145397;28;20437;-63
2023/08/05 00:31:47;;;;;;;7.30;6.60;;;23.80;99.90;;;;;;4144384;28;20037;-63
2023/08/05 00:33:48;;;;;;;8.43;6.72;;;23.80;99.90;;;;;;4145136;28;20114;-62
2023/08/05 00:35:49;;;;;;;8.80;6.53;;;23.90;99.90;;;;;;4144520;28;20042;-62
2023/08/05 00:37:50;;;;;;;9.98;6.82;;;23.90;99.90;;;;;;4145241;28;20162;-62
2023/08/05 00:39:51;;;;;;;10.20;6.80;;;24.00;99.90;;;;;;4144595;28;20050;-61
2023/08/05 00:41:52;;;;;;;7.70;6.55;;;24.00;99.90;;;;;;4145551;28;20037;-62
2023/08/05 00:43:53;;;;;;;9.57;6.57;;;24.00;99.90;;;;;;4143142;28;20587;-62
2023/08/05 00:45:56;;;;;;;8.43;6.97;;;24.10;99.90;;;;;;4145277;28;20433;-62
2023/08/05 00:47:57;;;;;;;10.48;7.32;;;24.10;99.90;;;;;;4144175;28;20033;-62
2023/08/05 00:49:59;;;;;;;10.23;7.28;;;24.10;99.90;;;;;;4145225;28;20088;-62
2023/08/05 00:52:00;;;;;;;10.23;7.60;;;24.20;99.90;;;;;;4144893;28;20030;-62
2023/08/05 00:54:02;;;;;;;7.78;6.97;;;24.20;99.90;;;;;;4144607;28;20537;-61
2023/08/05 00:56:03;;;;;;;8.23;7.15;;;24.20;99.90;;;;;;4144207;28;20045;-61
2023/08/05 00:58:04;;;;;;;7.97;6.93;;;24.20;99.90;;;;;;4144545;28;20033;-62
2023/08/05 01:00:06;;;;;;;7.75;6.95;;;24.20;99.90;;;;;;4145113;28;20111;-62
2023/08/05 01:02:07;;;;;;;9.60;6.97;;;24.20;99.90;;;;;;4144268;28;20513;-62
2023/08/05 01:04:09;;;;;;;7.88;7.07;;;24.20;99.90;;;;;;4145205;28;20038;-61
2023/08/05 01:06:11;;;;;;;8.75;6.70;;;24.20;99.90;;;;;;4143963;28;20037;-62
2023/08/05 01:08:13;;;;;;;7.90;7.10;;;24.20;99.90;;;;;;4145122;28;20018;-62
2023/08/05 01:10:14;;;;;;;8.00;7.30;;;24.20;99.90;;;;;;4144102;28;20042;-62
2023/08/05 01:12:15;;;;;;;8.32;7.53;;;24.20;99.90;;;;;;4145074;28;20042;-61
2023/08/05 01:14:17;;;;;;;9.57;7.43;;;24.20;99.90;;;;;;4143796;28;20072;-62
2023/08/05 01:16:18;;;;;;;9.07;8.02;;;24.20;99.90;;;;;;4145022;28;20422;-61
2023/08/05 01:18:19;;;;;;;9.65;7.63;;;24.10;99.90;;;;;;4143790;28;20050;-61
2023/08/05 01:20:27;;;;;;;9.27;7.75;;;24.10;99.90;;;;;;4145302;28;20053;-61
2023/08/05 01:22:31;;;;;;;8.95;7.85;;;24.00;99.90;;;;;;4143809;28;20022;-62
2023/08/05 01:24:49;;;;;;;9.07;8.15;;;24.10;99.90;;;;;;4144808;28;20046;-62
2023/08/05 01:26:51;;;;;;;10.23;8.68;;;24.10;99.90;;;;;;4143834;28;20033;-61
2023/08/05 01:28:53;;;;;;;10.07;8.40;;;24.10;99.90;;;;;;4144786;28;20137;-63
2023/08/05 01:30:57;;;;;;;12.27;8.38;;;24.00;99.90;;;;;;4144004;28;20434;-62
2023/08/05 01:33:01;;;;;;;10.30;8.45;;;24.00;99.90;;;;;;4143074;28;20108;-63
2023/08/05 01:35:04;;;;;;;9.25;8.32;;;24.00;99.90;;;;;;4144224;28;20014;-63
2023/08/05 01:37:05;;;;;;;9.05;8.13;;;24.00;99.90;;;;;;4144142;28;20072;-61
2023/08/05 01:39:07;;;;;;;9.23;7.85;;;24.00;99.90;;;;;;4144409;28;20022;-63
2023/08/05 01:41:08;;;;;;;8.68;7.35;;;24.00;99.90;;;;;;4143388;28;20072;-62
2023/08/05 01:43:09;;;;;;;10.40;8.32;;;23.90;99.90;;;;;;4144437;28;20034;-61
2023/08/05 01:45:10;;;;;;;11.10;8.75;;;23.80;99.90;;;;;;4144823;28;20088;-63
2023/08/05 01:47:11;;;;;;;8.32;7.53;;;23.80;99.90;;;;;;4148081;28;20479;-62
2023/08/05 01:49:12;;;;;;;11.15;8.75;;;23.80;99.90;;;;;;4146767;28;20038;-61
2023/08/05 01:51:14;;;;;;;11.27;7.90;;;23.70;99.90;;;;;;4148075;28;20034;-63
2023/08/05 01:53:15;;;;;;;9.55;8.60;;;23.60;99.90;;;;;;4146772;28;20112;-62
2023/08/05 01:55:16;;;;;;;9.50;7.50;;;23.60;99.90;;;;;;4147586;28;20026;-62
2023/08/05 01:57:17;;;;;;;9.73;8.43;;;23.50;99.90;;;;;;4146483;28;20099;-62
2023/08/05 01:59:18;;;;;;;9.18;8.27;;;23.50;99.90;;;;;;4147799;28;20543;-61
2023/08/05 02:01:19;;;;;;;9.65;8.48;;;23.50;99.90;;;;;;4146667;28;20022;-62
2023/08/05 02:03:20;;;;;;;9.50;8.48;;;23.40;99.90;;;;;;4147258;28;20030;-61
2023/08/05 02:05:22;;;;;;;9.98;8.45;;;23.40;99.90;;;;;;4147045;28;20068;-61
2023/08/05 02:07:23;;;;;;;11.25;8.40;;;23.40;99.90;;;;;;4146912;28;20026;-61
2023/08/05 02:09:24;;;;;;;10.40;8.98;;;23.40;99.90;;;;;;4147114;28;20382;-61
2023/08/05 02:11:25;;;;;;;9.55;8.15;;;23.40;99.90;;;;;;4146579;28;20384;-60
2023/08/05 02:13:26;;;;;;;10.15;8.73;;;23.30;99.90;;;;;;4147664;28;20029;-63
2023/08/05 02:15:27;;;;;;;14.98;8.20;;;23.30;99.90;;;;;;4146495;28;20475;-61
2023/08/05 02:17:28;;;;;;;12.05;8.00;;;23.40;99.90;;;;;;4147312;28;20022;-61
2023/08/05 02:19:29;;;;;;;8.95;8.05;;;23.30;99.90;;;;;;4146473;28;20111;-62
2023/08/05 02:21:30;;;;;;;9.13;8.18;;;23.30;99.90;;;;;;4148082;28;20049;-62
2023/08/05 02:23:31;;;;;;;10.95;8.57;;;23.40;99.90;;;;;;4146352;28;20913;-62
2023/08/05 02:25:32;;;;;;;11.68;8.30;;;23.40;99.90;;;;;;4147331;28;20081;-62
2023/08/05 02:27:33;;;;;;;14.65;8.45;;;23.30;99.90;;;;;;4146613;28;20196;-63
2023/08/05 02:29:35;;;;;;;10.57;7.90;;;23.40;99.90;;;;;;4147361;28;20042;-62
2023/08/05 02:31:36;;;;;;;12.57;8.23;;;23.40;99.90;;;;;;4146041;28;20088;-62
2023/08/05 02:33:37;;;;;;;12.05;8.63;;;23.40;99.90;;;;;;4146894;28;20092;-62
2023/08/05 02:35:38;;;;;;;8.95;8.05;;;23.40;99.90;;;;;;4146502;28;20100;-63
2023/08/05 02:37:39;;;;;;;9.30;8.40;;;23.40;99.90;;;;;;4146506;28;20080;-62
2023/08/05 02:39:40;;;;;;;12.27;8.25;;;23.40;99.90;;;;;;4146837;28;20025;-62
2023/08/05 02:41:41;;;;;;;9.65;8.15;;;23.50;99.90;;;;;;4145857;28;20762;-62
2023/08/05 02:43:42;;;;;;;10.52;8.88;;;23.40;99.90;;;;;;4146917;28;20034;-62
2023/08/05 02:45:44;;;;;;;11.32;8.70;;;23.50;99.90;;;;;;4145735;28;20465;-62
2023/08/05 02:47:45;;;;;;;11.32;8.02;;;23.40;99.90;;;;;;4147383;28;20095;-63
2023/08/05 02:49:46;;;;;;;11.25;8.45;;;23.30;99.90;;;;;;4145935;28;20171;-62
2023/08/05 02:51:47;;;;;;;11.50;8.07;;;23.40;99.90;;;;;;4147470;28;20037;-63
2023/08/05 02:53:48;;;;;;;9.05;8.15;;;23.30;99.90;;;;;;4145961;28;20084;-62
2023/08/05 02:55:49;;;;;;;12.57;8.27;;;23.30;99.90;;;;;;4145475;28;20034;-62
2023/08/05 02:57:50;;;;;;;10.75;8.93;;;23.30;99.90;;;;;;4146029;28;20046;-62
2023/08/05 02:59:51;;;;;;;10.20;8.02;;;23.30;99.90;;;;;;4146817;28;20068;-62
2023/08/05 03:01:52;;;;;;;10.68;7.88;;;23.30;99.90;;;;;;4146042;28;20093;-61
2023/08/05 03:03:53;;;;;;;9.75;8.00;;;23.30;99.90;;;;;;4146649;28;20050;-62
2023/08/05 03:05:55;;;;;;;10.48;7.70;;;23.30;99.90;;;;;;4145903;28;20466;-61
2023/08/05 03:07:56;;;;;;;14.75;8.10;;;23.30;99.90;;;;;;4145892;28;20139;-61
2023/08/05 03:09:57;;;;;;;13.68;8.27;;;23.30;99.90;;;;;;4146188;28;20029;-62
2023/08/05 03:11:58;;;;;;;8.70;7.80;;;23.30;99.90;;;;;;4145518;28;20093;-62
2023/08/05 03:13:59;;;;;;;12.05;7.93;;;23.30;99.90;;;;;;4146636;28;20080;-62
2023/08/05 03:16:11;;;;;;;10.18;7.82;;;23.50;99.90;;;;;;4145818;28;20030;-62
2023/08/05 03:18:12;;;;;;;15.60;7.40;;;23.50;99.90;;;;;;4146745;28;20571;-62
2023/08/05 03:20:27;;;;;;;12.52;7.95;;;23.60;99.90;;;;;;4145227;28;20034;-63
2023/08/05 03:22:29;;;;;;;10.13;8.38;;;23.70;99.90;;;;;;4146791;28;20084;-62
2023/08/05 03:24:30;;;;;;;10.73;7.45;;;23.80;99.90;;;;;;4145414;28;20030;-62
2023/08/05 03:26:31;;;;;;;8.85;7.85;;;23.70;99.90;;;;;;4146184;28;20042;-63
2023/08/05 03:28:32;;;;;;;12.90;7.80;;;23.80;99.90;;;;;;4143972;28;20472;-64
2023/08/05 03:30:33;;;;;;;10.20;7.97;;;23.80;99.90;;;;;;4146360;28;20084;-63
2023/08/05 03:32:34;;;;;;;8.95;7.88;;;23.80;99.90;;;;;;4145343;28;20049;-63
2023/08/05 03:34:36;;;;;;;12.15;7.85;;;23.80;99.90;;;;;;4146629;28;20037;-62
2023/08/05 03:36:37;;;;;;;9.05;8.15;;;23.90;99.90;;;;;;4145239;28;20501;-63
2023/08/05 03:38:38;;;;;;;11.65;7.60;;;23.90;99.90;;;;;;4146449;28;20046;-62
2023/08/05 03:40:39;;;;;;;8.68;7.60;;;24.00;99.90;;;;;;4145271;28;20100;-61
2023/08/05 03:42:41;;;;;;;10.68;7.82;;;24.00;99.90;;;;;;4145602;28;20479;-61
2023/08/05 03:44:42;;;;;;;9.13;7.85;;;24.00;99.90;;;;;;4145772;28;20034;-62
2023/08/05 03:46:45;;;;;;;14.38;8.05;;;24.00;99.90;;;;;;4145499;28;20465;-63
2023/08/05 03:48:48;;;;;;;12.27;8.20;;;24.10;99.90;;;;;;4145862;28;20101;-62
2023/08/05 03:50:49;;;;;;;8.60;7.80;;;24.00;99.90;;;;;;4145078;28;20465;-66
2023/08/05 03:52:52;;;;;;;9.95;7.82;;;24.00;99.90;;;;;;4146231;28;20034;-63
2023/08/05 03:54:54;;;;;;;10.48;7.43;;;24.00;99.90;;;;;;4144824;28;20021;-61
2023/08/05 03:56:58;;;;;;;10.05;8.23;;;24.20;99.90;;;;;;4145896;28;20112;-62
2023/08/05 03:58:59;;;;;;;10.07;6.68;;;24.30;99.90;;;;;;4144715;28;20030;-62
2023/08/05 04:01:01;;;;;;;8.68;7.78;;;24.50;99.90;;;;;;4146070;28;20072;-61
2023/08/05 04:03:02;;;;;;;10.13;7.40;;;24.60;99.90;;;;;;4144661;28;20025;-62
2023/08/05 04:05:04;;;;;;;10.00;7.18;;;24.80;99.90;;;;;;4144668;28;20073;-62
2023/08/05 04:07:05;;;;;;;10.25;6.53;;;24.90;99.90;;;;;;4144317;28;20104;-62
2023/08/05 04:09:07;;;;;;;8.20;7.40;;;25.00;99.90;;;;;;4145514;28;20037;-63
2023/08/05 04:11:08;;;;;;;9.52;7.13;;;25.00;99.90;;;;;;4144399;28;20808;-61
2023/08/05 04:13:11;;;;;;;8.85;7.07;;;25.10;99.90;;;;;;4145785;28;20054;-62
2023/08/05 04:15:13;;;;;;;7.93;6.53;;;25.30;99.90;;;;;;4144837;28;20076;-62
2023/08/05 04:17:15;;;;;;;9.02;6.47;;;25.40;99.90;;;;;;4145300;28;20105;-63
2023/08/05 04:19:16;;;;;;;6.88;6.28;;;25.50;99.90;;;;;;4144845;28;20010;-62
2023/08/05 04:21:17;;;;;;;9.00;6.55;;;25.50;99.90;;;;;;4145161;28;20084;-62
2023/08/05 04:23:21;;;;;;;7.07;6.30;;;25.60;99.90;;;;;;4145363;28;20030;-61
2023/08/05 04:25:22;;;;;;;10.23;6.80;;;25.60;99.90;;;;;;4144451;28;20096;-62
2023/08/05 04:27:24;;;;;;;8.75;6.30;;;25.70;99.90;;;;;;4145538;28;20067;-62
2023/08/05 04:29:25;;;;;;;7.18;6.47;;;25.80;99.90;;;;;;4144341;28;20112;-61
2023/08/05 04:31:27;;;;;;;7.43;6.53;;;25.80;99.90;;;;;;4145681;28;20080;-63
2023/08/05 04:33:28;;;;;;;8.15;6.95;;;25.80;99.90;;;;;;4144106;28;20111;-60
2023/08/05 04:35:29;;;;;;;8.68;5.85;;;25.80;99.90;;;;;;4145383;28;20030;-61
2023/08/05 04:37:31;;;;;;;8.95;6.30;;;25.90;99.90;;;;;;4144368;28;20080;-62
2023/08/05 04:39:32;;;;;;;7.30;5.50;;;25.90;99.90;;;;;;4144587;28;20038;-62
2023/08/05 04:41:33;;;;;;;7.03;6.43;;;26.00;99.90;;;;;;4143858;28;20033;-63
2023/08/05 04:43:34;;;;;;;7.03;6.32;;;26.00;99.90;;;;;;4144771;28;20382;-62
2023/08/05 04:45:35;;;;;;;9.65;5.85;;;26.10;99.90;;;;;;4143761;28;20038;-62
2023/08/05 04:47:36;;;;;;;7.57;6.63;;;26.20;99.90;;;;;;4144603;28;20026;-63
2023/08/05 04:49:43;;;;;;;7.15;6.30;;;26.30;99.90;;;;;;4144455;28;20042;-62
2023/08/05 04:51:44;;;;;;;7.22;5.78;;;26.20;99.90;;;;;;4143058;28;20085;-63
2023/08/05 04:53:45;;;;;;;10.05;6.07;;;26.20;99.90;;;;;;4143940;28;20673;-63
2023/08/05 04:55:46;;;;;;;6.82;6.13;;;26.20;99.90;;;;;;4143160;28;20022;-62
2023/08/05 04:57:54;;;;;;;7.43;6.72;;;26.30;99.90;;;;;;4145161;28;20046;-63
2023/08/05 04:59:55;;;;;;;8.02;6.65;;;26.50;99.90;;;;;;4143738;28;20037;-63
2023/08/05 05:01:57;;;;;;;10.90;7.03;;;26.60;99.90;;;;;;4144638;28;20119;-61
2023/08/05 05:03:58;;;;;;;8.32;6.72;;;26.60;99.90;;;;;;4143079;28;20414;-62
2023/08/05 05:06:00;;;;;;;10.80;6.50;;;26.50;99.90;;;;;;4143872;28;20116;-62
2023/08/05 05:08:02;;;;;;;11.02;7.20;;;26.40;99.90;;;;;;4142760;28;20026;-62
2023/08/05 05:10:03;;;;;;;10.27;7.07;;;26.40;99.90;;;;;;4144726;28;20034;-62
2023/08/05 05:12:05;;;;;;;9.30;6.57;;;26.40;99.90;;;;;;4143799;28;20139;-62
2023/08/05 05:14:06;;;;;;;9.43;7.05;;;26.50;99.90;;;;;;4144245;28;20026;-62
2023/08/05 05:16:07;;;;;;;9.38;6.85;;;26.60;99.90;;;;;;4143405;28;20045;-62
2023/08/05 05:18:08;;;;;;;9.23;7.20;;;26.80;99.90;;;;;;4144464;28;20037;-63
2023/08/05 05:20:10;;;;;;;7.70;6.40;;;26.90;99.90;;;;;;4142239;28;20049;-62
2023/08/05 05:22:17;;;;;;;6.78;6.15;;;27.10;99.90;;;;;;4143999;28;20428;-62
2023/08/05 05:24:18;;;;;;;8.05;6.15;;;27.20;99.90;;;;;;4143499;28;20018;-62
2023/08/05 05:26:19;;;;;;;14.88;6.70;;;27.30;99.90;;;;;;4143051;28;20091;-63
2023/08/05 05:28:20;;;;;;;9.85;6.32;;;27.30;99.90;;;;;;4142139;28;20041;-61
2023/08/05 05:30:21;;;;;;;10.07;5.70;;;27.30;99.90;;;;;;4143169;28;20042;-60
2023/08/05 05:32:22;;;;;;;6.30;5.28;;;27.40;99.90;;;;;;4144560;28;20038;-62
2023/08/05 05:34:24;;;;;;;5.43;4.82;;;27.40;99.90;;;;;;4143461;28;20061;-63
2023/08/05 05:36:25;;;;;;;5.28;4.75;;;27.50;99.90;;;;;;4144667;28;20046;-62
2023/08/05 05:38:26;;;;;;;8.35;4.97;;;27.60;99.90;;;;;;4143552;28;20034;-62
2023/08/05 05:40:27;;;;;;;8.57;5.00;;;27.70;99.90;;;;;;4144700;28;20068;-61
2023/08/05 05:42:29;;;;;;;6.00;4.88;;;27.80;99.90;;;;;;4143592;28;20104;-61
2023/08/05 05:44:30;;;;;;;5.82;5.07;;;27.90;99.90;;;;;;4144294;28;20041;-62
2023/08/05 05:46:32;;;;;;;5.60;4.97;;;27.90;99.90;;;;;;4143017;28;20050;-62
2023/08/05 05:48:33;;;;;;;8.35;4.95;;;27.90;99.90;;;;;;4143991;28;20080;-60
2023/08/05 05:50:39;;;;;;;5.93;4.53;;;27.90;99.90;;;;;;4143573;28;20030;-60
2023/08/05 05:52:40;;;;;;;7.07;4.57;;;27.90;99.90;;;;;;4144369;28;20030;-62
2023/08/05 05:54:43;;;;;;;8.00;5.65;;;27.90;99.90;;;;;;4143799;28;20030;-62
2023/08/05 05:56:44;;;;;;;7.47;5.43;;;28.00;99.90;;;;;;4143417;28;20050;-60
2023/08/05 05:58:45;;;;;;;7.68;5.13;;;28.10;99.90;;;;;;4143628;28;20058;-62
2023/08/05 06:00:46;;;;;;;8.23;5.65;;;27.90;99.90;;;;;;4143066;28;20378;-62
2023/08/05 06:02:48;;;;;;;6.43;4.85;;;28.10;99.90;;;;;;4143777;28;20088;-61
2023/08/05 06:04:50;;;;;;;4.85;4.45;;;28.10;99.90;;;;;;4142937;28;20461;-62
2023/08/05 06:06:52;;;;;;;5.95;4.60;;;28.20;99.90;;;;;;4143979;28;20141;-61
2023/08/05 06:08:54;;;;;;;10.70;4.80;;;28.30;99.90;;;;;;4142675;28;20152;-61
2023/08/05 06:10:55;;;;;;;5.65;4.78;;;28.30;99.90;;;;;;4143634;28;20037;-60
2023/08/05 06:12:57;;;;;;;5.95;4.15;;;28.40;99.90;;;;;;4143130;28;20045;-63
2023/08/05 06:15:00;;;;;;;10.75;5.03;;;28.40;99.90;;;;;;4144041;28;20022;-61
2023/08/05 06:17:01;;;;;;;7.07;4.20;;;28.30;99.90;;;;;;4142655;28;20037;-62
2023/08/05 06:19:02;;;;;;;4.60;4.18;;;28.30;99.90;;;;;;4144039;28;20462;-62
2023/08/05 06:21:04;;;;;;;8.38;4.13;;;28.50;99.90;;;;;;4143124;28;20465;-62
2023/08/05 06:23:06;;;;;;;5.30;4.25;;;28.60;99.90;;;;;;4143989;28;20060;-62
2023/08/05 06:25:07;;;;;;;7.38;4.45;;;28.50;99.90;;;;;;4142759;28;20093;-61
2023/08/05 06:27:09;;;;;;;6.82;4.03;;;28.50;99.90;;;;;;4143499;28;20030;-63
2023/08/05 06:29:10;;;;;;;9.27;4.72;;;28.50;99.90;;;;;;4141891;28;20038;-62
2023/08/05 06:31:11;;;;;;;7.85;4.03;;;28.60;99.90;;;;;;4143966;28;20072;-61
2023/08/05 06:33:12;;;;;;;5.47;4.47;;;28.60;99.90;;;;;;4146407;28;20022;-63
2023/08/05 06:35:13;;;;;;;6.97;4.28;;;28.60;99.90;;;;;;4145830;28;20029;-61
2023/08/05 06:37:15;;;;;;;7.65;4.63;;;28.70;99.90;;;;;;4146584;28;20042;-61
2023/08/05 06:39:16;;;;;;;5.07;4.50;;;28.70;99.90;;;;;;4146277;28;20036;-62
2023/08/05 06:41:17;;;;;;;4.35;3.90;;;28.80;99.90;;;;;;4147338;28;20092;-63
2023/08/05 06:43:18;;;;;;;4.72;4.32;;;28.80;99.90;;;;;;4142080;28;20026;-61
2023/08/05 06:45:20;;;;;;;4.70;4.30;;;28.80;99.90;;;;;;4145688;28;20466;-61
2023/08/05 06:47:21;;;;;;;5.82;4.53;;;28.90;99.90;;;;;;4145768;28;20108;-69
2023/08/05 06:49:22;;;;;;;7.05;4.70;;;28.90;99.90;;;;;;4146095;28;20340;-63
2023/08/05 06:51:23;;;;;;;6.10;4.30;;;29.10;99.90;;;;;;4145906;28;20045;-60
2023/08/05 06:53:25;;;;;;;4.90;4.40;;;29.10;99.90;;;;;;4146497;28;20038;-62
2023/08/05 06:55:26;;;;;;;5.82;4.43;;;29.10;99.90;;;;;;4145443;28;20038;-63
2023/08/05 06:57:28;;;;;;;6.25;5.00;;;29.20;99.90;;;;;;4145660;28;20050;-60
2023/08/05 06:59:29;;;;;;;6.00;4.55;;;29.30;99.90;;;;;;4140911;28;20033;-64
2023/08/05 07:01:30;;;;;;;6.38;4.60;;;29.40;99.90;;;;;;4134439;28;20046;-61
2023/08/05 07:03:31;;;;;;;5.57;4.10;;;29.50;99.90;;;;;;4144689;28;20135;-61
2023/08/05 07:05:33;;;;;;;5.60;4.50;;;29.80;99.90;;;;;;4144701;28;20041;-61
2023/08/05 07:07:34;;;;;;;5.07;3.92;;;30.00;99.90;;;;;;4141114;28;20101;-61
2023/08/05 07:09:35;;;;;;;6.45;4.82;;;30.10;99.90;;;;;;4138047;28;20175;-60
2023/08/05 07:11:36;;;;;;;6.70;3.90;;;30.00;99.90;;;;;;4146236;28;20449;-59
2023/08/05 07:13:37;;;;;;;7.13;4.60;;;29.90;99.90;;;;;;4139913;28;20023;-60
2023/08/05 07:15:39;;;;;;;6.15;4.40;;;29.80;99.90;;;;;;4140091;28;20473;-60
2023/08/05 07:17:40;;;;;;;5.90;4.15;;;29.80;99.90;;;;;;4144906;28;20167;-61
2023/08/05 07:19:42;;;;;;;5.68;4.32;;;29.70;99.90;;;;;;4146457;28;20026;-60
2023/08/05 07:21:43;;;;;;;5.90;4.53;;;29.90;99.90;;;;;;4145839;28;20046;-61
2023/08/05 07:23:44;;;;;;;5.53;3.92;;;29.90;99.90;;;;;;4146712;28;20479;-61
2023/08/05 07:25:45;;;;;;;8.88;4.88;;;30.00;99.90;;;;;;4145211;28;20123;-61
2023/08/05 07:27:46;;;;;;;9.20;4.55;;;30.00;99.90;;;;;;4145529;28;20092;-61
2023/08/05 07:29:48;;;;;;;8.65;4.13;;;30.00;99.90;;;;;;4145005;28;20096;-60
2023/08/05 07:31:49;;;;;;;4.57;4.18;;;30.00;99.90;;;;;;4145692;28;20085;-63
2023/08/05 07:33:51;;;;;;;6.13;3.67;;;30.10;99.90;;;;;;4145575;28;20084;-60
2023/08/05 07:35:53;;;;;;;6.32;4.10;;;30.20;99.90;;;;;;4144938;28;20565;-60
2023/08/05 07:37:55;;;;;;;6.88;4.90;;;30.20;99.90;;;;;;4145710;28;20033;-60
2023/08/05 07:39:57;;;;;;;4.95;3.88;;;30.20;99.90;;;;;;4144924;28;20096;-60
2023/08/05 07:42:00;;;;;;;6.45;3.88;;;30.30;99.90;;;;;;4145940;28;20037;-61
2023/08/05 07:44:02;;;;;;;4.43;3.80;;;30.30;99.90;;;;;;4142531;28;20038;-60
2023/08/05 07:46:05;;;;;;;4.38;4.00;;;30.50;99.90;;;;;;4132436;28;20109;-61
2023/08/05 07:48:09;;;;;;;5.88;4.07;;;30.60;99.80;;;;;;4128561;28;20085;-62
2023/08/05 07:50:10;;;;;;;6.28;3.97;;;30.70;99.70;;;;;;4129147;28;20114;-60
2023/08/05 07:52:11;;;;;;;6.43;3.97;;;30.70;99.50;;;;;;4128341;28;20034;-61
2023/08/05 07:54:13;;;;;;;6.20;4.00;;;30.80;99.40;;;;;;4129273;28;20030;-61
2023/08/05 07:56:15;;;;;;;4.28;3.70;;;30.90;99.20;;;;;;4126660;28;20050;-61
2023/08/05 07:58:17;;;;;;;8.32;4.15;;;30.90;99.20;;;;;;4129125;28;20026;-62
2023/08/05 08:00:18;;;;;;;3.80;3.50;;;30.90;99.30;;;;;;4128417;28;20023;-60
2023/08/05 08:02:20;;;;;;;5.38;3.97;;;30.90;99.10;;;;;;4128922;28;20034;-61
2023/08/05 08:04:21;;;;;;;3.90;3.50;;;30.80;98.90;;;;;;4128780;28;20463;-61
2023/08/05 08:06:22;;;;;;;4.32;3.78;;;31.10;98.90;;;;;;4128740;28;20089;-61
2023/08/05 08:08:23;;;;;;;5.32;3.90;;;31.20;98.70;;;;;;4128879;28;20076;-61
2023/08/05 08:10:25;;;;;;;3.80;3.50;;;31.20;98.60;;;;;;4128088;28;20030;-61
2023/08/05 08:12:26;;;;;;;9.20;3.80;;;31.30;98.40;;;;;;4129006;28;20080;-63
2023/08/05 08:14:27;;;;;;;5.22;3.53;;;31.30;98.00;;;;;;4127963;28;20108;-62
2023/08/05 08:16:28;;;;;;;6.10;3.85;;;31.10;98.00;;;;;;4129193;28;20097;-61
2023/08/05 08:18:29;;;;;;;4.30;3.90;;;31.20;98.10;;;;;;4128115;28;20116;-60
2023/08/05 08:20:30;;;;;;;5.45;4.22;;;31.30;97.90;;;;;;4129261;28;20034;-63
2023/08/05 08:22:32;;;;;;;5.85;4.00;;;31.30;97.40;;;;;;4127940;28;20498;-59
2023/08/05 08:24:33;;;;;;;5.60;4.18;;;31.20;97.60;;;;;;4129201;28;20391;-59
2023/08/05 08:26:34;;;;;;;6.68;4.40;;;31.20;97.80;;;;;;4127696;28;20065;-61
2023/08/05 08:28:35;;;;;;;4.47;4.07;;;31.40;97.90;;;;;;4129023;28;20089;-62
2023/08/05 08:30:36;;;;;;;4.55;4.15;;;31.50;97.80;;;;;;4126587;28;20073;-64
2023/08/05 08:32:38;;;;;;;7.85;4.55;;;31.40;97.90;;;;;;4128721;28;20483;-62
2023/08/05 08:34:39;;;;;;;5.05;4.15;;;31.30;97.90;;;;;;4128272;28;20120;-61
2023/08/05 08:36:40;;;;;;;9.35;4.00;;;31.30;98.00;;;;;;4127818;28;20553;-61
2023/08/05 08:38:41;;;;;;;5.88;4.18;;;31.50;98.20;;;;;;4127369;28;20097;-63
2023/08/05 08:40:50;;;;;;;13.45;4.53;;;31.50;98.10;;;;;;4128016;28;20071;-63
2023/08/05 08:42:52;;;;;;;4.47;4.07;;;31.40;98.10;;;;;;4128777;28;20042;-62
2023/08/05 08:44:54;;;;;;;5.10;4.30;;;31.60;98.20;;;;;;4127633;28;20065;-66
2023/08/05 08:46:56;;;;;;;7.47;4.35;;;31.60;98.00;;;;;;4128842;28;20039;-60
2023/08/05 08:48:57;;;;;;;7.05;4.43;;;31.70;98.10;;;;;;4127859;28;20101;-64
2023/08/05 08:50:59;;;;;;;5.10;3.92;;;31.60;98.30;;;;;;4128860;28;20074;-63
2023/08/05 08:53:01;;;;;;;4.78;4.15;;;31.80;98.30;;;;;;4127995;28;20061;-64
2023/08/05 08:55:03;;;;;;;4.20;3.80;;;31.80;98.20;;;;;;4128747;28;20100;-63
2023/08/05 08:57:05;;;;;;;4.88;4.25;;;31.90;98.20;;;;;;4127121;28;20038;-63
2023/08/05 08:59:07;;;;;;;4.20;3.72;;;31.80;97.80;;;;;;4128787;28;20125;-60
2023/08/05 09:01:09;;;;;;;4.50;4.10;;;31.70;97.60;;;;;;4127532;28;20438;-62
2023/08/05 09:03:12;;;;;;;6.95;3.97;;;31.70;97.40;;;;;;4128327;28;20442;-61
2023/08/05 09:05:14;;;;;;;10.18;4.40;;;31.60;97.30;;;;;;4127661;28;20070;-61
2023/08/05 09:07:15;;;;;;;4.22;3.50;;;31.50;97.30;;;;;;4127916;28;20093;-61
2023/08/05 09:09:16;;;;;;;5.75;4.22;;;31.50;97.40;;;;;;4128053;28;20034;-61
2023/08/05 09:11:17;;;;;;;6.80;4.57;;;31.60;97.40;;;;;;4127701;28;20033;-62
2023/08/05 09:13:20;;;;;;;6.85;4.30;;;31.70;97.40;;;;;;4128072;28;20022;-63
2023/08/05 09:15:21;;;;;;;4.35;3.97;;;31.80;97.60;;;;;;4127552;28;20038;-62
2023/08/05 09:17:22;;;;;;;5.65;4.13;;;31.90;97.20;;;;;;4130625;28;20081;-62
2023/08/05 09:19:28;;;;;;;6.40;4.00;;;31.90;97.30;;;;;;4143066;28;20010;-59
2023/08/05 09:21:29;;;;;;;8.20;4.30;;;31.80;97.30;;;;;;4144658;28;20034;-62
2023/08/05 09:23:30;;;;;;;4.80;3.60;;;31.90;97.40;;;;;;4142604;28;20038;-60
2023/08/05 09:25:32;;;;;;;4.28;3.88;;;32.10;97.30;;;;;;4144043;28;20042;-61
2023/08/05 09:27:46;;;;;;;7.97;3.95;;;32.10;97.10;;;;;;4143126;28;20049;-61
2023/08/05 09:29:48;;;;;;;6.05;4.05;;;32.20;97.00;;;;;;4144048;28;20100;-61
2023/08/05 09:31:58;;;;;;;5.38;4.22;;;32.10;97.10;;;;;;4143129;28;20786;-61
2023/08/05 09:34:03;;;;;;;10.05;4.35;;;32.00;96.80;;;;;;4143954;28;20478;-60
2023/08/05 09:36:12;;;;;;;3.85;3.47;;;31.90;97.00;;;;;;4142502;28;20084;-60
2023/08/05 09:38:13;;;;;;;7.03;3.72;;;31.80;97.00;;;;;;4141417;28;20033;-60
2023/08/05 09:40:18;;;;;;;4.70;3.85;;;31.80;97.20;;;;;;4143156;28;20105;-60
2023/08/05 09:42:25;;;;;;;4.97;4.25;;;31.80;97.10;;;;;;4144471;28;20046;-62
2023/08/05 09:44:27;;;;;;;10.00;4.10;;;31.70;97.10;;;;;;4143183;28;20084;-60
2023/08/05 09:46:44;;;;;;;5.55;4.63;;;31.60;97.00;;;;;;4144310;28;20053;-62
2023/08/05 09:48:46;;;;;;;6.45;4.30;;;31.60;97.20;;;;;;4143406;28;20467;-60
2023/08/05 09:50:48;;;;;;;6.57;4.55;;;31.70;97.10;;;;;;4144036;28;20038;-61
2023/08/05 09:52:55;;;;;;;7.57;4.30;;;31.70;97.20;;;;;;4143480;28;20541;-60
2023/08/05 09:55:13;;;;;;;4.53;4.07;;;31.80;97.20;;;;;;4143748;28;20486;-61
2023/08/05 09:57:15;;;;;;;4.55;3.75;;;31.80;96.20;;;;;;4127398;28;20042;-60
2023/08/05 09:59:17;;;;;;;7.05;3.90;;;31.80;96.50;;;;;;4127847;28;20104;-62
2023/08/05 10:01:19;;;;;;;6.50;4.10;;;31.90;96.30;;;;;;4140977;28;20093;-61
2023/08/05 10:03:21;;;;;;;4.25;3.78;;;31.80;96.10;;;;;;4143437;28;20667;-60
2023/08/05 10:05:25;;;;;;;5.78;4.22;;;31.80;96.10;;;;;;4143850;28;20026;-64
2023/08/05 10:07:29;;;;;;;4.47;4.07;;;31.70;96.20;;;;;;4144609;28;20038;-61
2023/08/05 10:09:30;;;;;;;5.28;4.55;;;31.80;96.50;;;;;;4146226;28;20136;-60
2023/08/05 10:11:32;;;;;;;7.82;4.68;;;31.90;96.40;;;;;;4146060;28;20145;-60
2023/08/05 10:13:41;;;;;;;5.07;4.07;;;31.90;96.30;;;;;;4143831;28;20494;-63
2023/08/05 10:15:46;;;;;;;5.88;4.32;;;32.00;96.10;;;;;;4143483;28;20026;-60
2023/08/05 10:17:48;;;;;;;8.30;3.80;;;32.10;96.00;;;;;;4147253;28;20087;-62
2023/08/05 10:19:53;;;;;;;5.65;4.50;;;32.00;96.00;;;;;;4145890;28;20034;-62
2023/08/05 10:22:09;;;;;;;4.82;4.28;;;32.10;96.10;;;;;;4147597;28;20525;-61
2023/08/05 10:24:10;;;;;;;4.30;3.97;;;32.20;96.20;;;;;;4145768;28;20038;-60
2023/08/05 10:26:11;;;;;;;3.65;3.35;;;32.20;96.10;;;;;;4146666;28;20085;-60
2023/08/05 10:28:27;;;;;;;5.13;4.30;;;32.40;96.10;;;;;;4145890;28;20050;-62
2023/08/05 10:30:29;;;;;;;7.82;3.95;;;32.40;95.70;;;;;;4146261;28;20453;-62
2023/08/05 10:32:30;;;;;;;5.88;4.40;;;32.30;96.00;;;;;;4146356;28;20112;-63
2023/08/05 10:34:31;;;;;;;8.05;3.67;;;32.30;96.40;;;;;;4146105;28;20167;-62